Time;durP1;ratioP1;P1;durP2;ratioP2;P2;SDS_P1;SDS_P2;PMS_P1;PMS_P2;Temp;Humidity;BMP_temperature;BMP_pressure;BME280_temperature;BME280_humidity;BME280_pressure;Samples;Min_cycle;Max_cycle;Signal;HPM_P1;HPM_P2
2022/06/28 00:01:24;;;;;;;3.72;0.20;;;;;;;6.07;100.00;101211.09;6114461;23;20032;-48
2022/06/28 00:03:49;;;;;;;0.85;0.10;;;;;;;6.00;100.00;101219.69;6116006;23;20064;-48
2022/06/28 00:06:15;;;;;;;1.42;0.10;;;;;;;5.94;100.00;101214.97;6115853;23;20029;-51
2022/06/28 00:08:40;;;;;;;0.70;0.00;;;;;;;5.98;100.00;101219.00;6117428;23;20435;-50
2022/06/28 00:11:05;;;;;;;1.10;0.38;;;;;;;6.01;100.00;101224.81;6117615;23;20029;-48
2022/06/28 00:13:31;;;;;;;0.35;0.10;;;;;;;5.95;100.00;101225.38;6092678;23;20033;-50
2022/06/28 00:16:06;;;;;;;0.52;0.10;;;;;;;5.82;100.00;101214.31;6116217;23;20040;-49
2022/06/28 00:18:39;;;;;;;0.00;0.00;;;;;;;5.75;100.00;101207.94;6118663;23;20429;-48
2022/06/28 00:21:06;;;;;;;2.33;0.40;;;;;;;5.65;100.00;101213.22;6117288;23;20018;-50
2022/06/28 00:23:33;;;;;;;1.27;0.20;;;;;;;5.59;100.00;101208.53;6116855;23;20025;-48
2022/06/28 00:25:58;;;;;;;0.38;0.05;;;;;;;5.57;100.00;101202.56;6118393;23;20005;-52
2022/06/28 00:28:24;;;;;;;2.22;1.60;;;;;;;5.59;100.00;101204.09;6117747;23;20060;-46
2022/06/28 00:30:49;;;;;;;4.68;0.63;;;;;;;5.66;100.00;101215.72;6116690;23;20089;-47
2022/06/28 00:33:15;;;;;;;4.05;0.55;;;;;;;5.69;100.00;101209.34;6117639;23;20042;-47
2022/06/28 00:35:40;;;;;;;2.97;0.28;;;;;;;5.68;100.00;101215.59;6118439;23;20010;-48
2022/06/28 00:38:06;;;;;;;2.75;0.20;;;;;;;5.61;100.00;101217.13;6115817;23;20028;-46
2022/06/28 00:40:33;;;;;;;3.13;0.30;;;;;;;5.47;100.00;101219.22;6117183;23;20021;-53
2022/06/28 00:42:59;;;;;;;3.28;0.75;;;;;;;5.38;100.00;101224.47;6115928;23;20002;-48
2022/06/28 00:45:25;;;;;;;1.17;0.20;;;;;;;5.33;100.00;101224.88;6116441;23;20093;-50
2022/06/28 00:47:53;;;;;;;0.20;0.20;;;;;;;5.39;100.00;101226.13;6117999;23;20053;-46
2022/06/28 00:50:18;;;;;;;2.35;0.63;;;;;;;5.40;100.00;101217.28;6118298;23;20293;-48
2022/06/28 00:53:04;;;;;;;1.75;0.40;;;;;;;5.43;100.00;101220.44;6117234;23;20021;-47
2022/06/28 00:55:30;;;;;;;2.03;0.30;;;;;;;5.48;100.00;101212.16;6119654;23;20013;-47
2022/06/28 00:57:56;;;;;;;1.25;0.77;;;;;;;5.50;100.00;101217.25;6119715;23;20348;-52
2022/06/28 01:00:22;;;;;;;0.47;0.08;;;;;;;5.46;100.00;101230.69;6119225;23;20018;-48
2022/06/28 01:02:47;;;;;;;0.10;0.10;;;;;;;5.38;100.00;101216.56;6120199;23;20475;-48
2022/06/28 01:05:13;;;;;;;0.90;0.10;;;;;;;5.29;100.00;101228.75;6121136;23;20074;-50
2022/06/28 01:07:38;;;;;;;0.30;0.28;;;;;;;5.21;100.00;101228.59;6120833;23;20030;-50
2022/06/28 01:10:04;;;;;;;0.90;0.08;;;;;;;5.20;100.00;101229.59;6121276;23;20047;-47
2022/06/28 01:12:30;;;;;;;0.80;0.10;;;;;;;5.19;100.00;101227.94;6119492;23;20006;-52
2022/06/28 01:14:55;;;;;;;0.10;0.10;;;;;;;5.17;100.00;101233.31;6120048;23;20131;-51
2022/06/28 01:17:20;;;;;;;0.15;0.10;;;;;;;5.12;100.00;101247.84;6119532;23;20021;-47
2022/06/28 01:19:46;;;;;;;1.75;0.63;;;;;;;5.08;100.00;101246.44;6120127;23;20010;-50
2022/06/28 01:22:12;;;;;;;0.52;0.52;;;;;;;5.03;100.00;101249.47;6118946;23;20006;-50
2022/06/28 01:24:37;;;;;;;0.93;0.00;;;;;;;5.02;100.00;101247.81;6119028;23;20088;-47
2022/06/28 01:27:04;;;;;;;0.60;0.10;;;;;;;4.98;100.00;101235.91;6120397;23;20018;-49
2022/06/28 01:29:30;;;;;;;5.60;1.67;;;;;;;4.92;100.00;101247.81;6119535;23;20039;-46
2022/06/28 01:31:55;;;;;;;0.70;0.10;;;;;;;4.86;100.00;101256.25;6118478;23;20010;-46
2022/06/28 01:34:23;;;;;;;0.30;0.13;;;;;;;4.82;100.00;101257.47;6119178;23;20040;-47
2022/06/28 01:36:48;;;;;;;0.85;0.50;;;;;;;4.76;100.00;101258.84;6120315;23;20020;-49
2022/06/28 01:39:14;;;;;;;2.20;0.17;;;;;;;4.77;100.00;101254.41;6121076;23;20093;-50
2022/06/28 01:41:40;;;;;;;1.08;0.00;;;;;;;4.76;100.00;101258.00;6119208;23;20371;-49
2022/06/28 01:44:07;;;;;;;1.17;0.15;;;;;;;4.72;100.00;101261.84;6118637;23;20073;-47
2022/06/28 01:46:36;;;;;;;1.30;0.32;;;;;;;4.70;100.00;101264.63;6118552;23;20118;-49
2022/06/28 01:49:03;;;;;;;0.82;0.38;;;;;;;4.71;100.00;101261.03;6119122;23;20014;-49
2022/06/28 01:51:29;;;;;;;2.50;0.00;;;;;;;4.71;100.00;101271.53;6120863;23;20041;-49
2022/06/28 01:53:54;;;;;;;2.20;0.17;;;;;;;4.65;100.00;101269.47;6119516;23;20506;-46
2022/06/28 01:56:20;;;;;;;2.25;0.15;;;;;;;4.63;100.00;101268.75;6120302;23;20403;-51
2022/06/28 01:58:45;;;;;;;4.75;0.43;;;;;;;4.61;100.00;101275.09;6119781;23;20010;-49
2022/06/28 02:01:11;;;;;;;3.05;1.05;;;;;;;4.60;100.00;101263.78;6119801;23;20010;-51
2022/06/28 02:03:37;;;;;;;0.22;0.00;;;;;;;4.55;100.00;101271.22;6119573;23;20147;-50
2022/06/28 02:06:02;;;;;;;0.40;0.40;;;;;;;4.53;100.00;101267.88;6121504;23;20036;-53
2022/06/28 02:08:28;;;;;;;3.25;0.95;;;;;;;4.55;100.00;101272.03;6120044;23;20626;-49
2022/06/28 02:10:58;;;;;;;0.95;0.10;;;;;;;4.55;100.00;101272.03;6121216;23;20010;-48
2022/06/28 02:13:23;;;;;;;2.17;0.28;;;;;;;4.58;100.00;101273.56;6119544;23;20013;-50
2022/06/28 02:15:49;;;;;;;0.45;0.17;;;;;;;4.58;100.00;101265.69;6119292;23;20010;-51
2022/06/28 02:18:14;;;;;;;0.28;0.15;;;;;;;4.54;100.00;101267.75;6116888;23;20044;-49
2022/06/28 02:20:40;;;;;;;3.42;0.63;;;;;;;4.45;100.00;101259.84;6119092;23;20332;-49
2022/06/28 02:23:05;;;;;;;1.45;0.20;;;;;;;4.37;100.00;101256.06;6120852;23;20041;-47
2022/06/28 02:25:31;;;;;;;2.30;0.22;;;;;;;4.31;100.00;101258.38;6119972;23;20325;-48
2022/06/28 02:27:56;;;;;;;0.00;0.00;;;;;;;4.26;100.00;101255.31;6120132;23;20010;-48
2022/06/28 02:30:21;;;;;;;2.83;0.20;;;;;;;4.25;100.00;101245.78;6118403;23;20428;-52
2022/06/28 02:32:47;;;;;;;5.18;1.45;;;;;;;4.25;100.00;101251.03;6120224;23;20010;-49
2022/06/28 02:40:41;;;;;;;0.95;0.08;;;;;;;4.21;100.00;101260.97;6120131;23;20017;-46
2022/06/28 02:43:06;;;;;;;1.65;0.17;;;;;;;4.19;100.00;101262.06;6119559;23;20006;-47
2022/06/28 02:45:34;;;;;;;1.27;0.10;;;;;;;4.13;100.00;101259.00;6119877;23;20021;-51
2022/06/28 02:48:00;;;;;;;0.82;0.20;;;;;;;4.12;100.00;101262.56;6119212;23;20006;-47
2022/06/28 02:50:26;;;;;;;0.43;0.08;;;;;;;4.07;100.00;101253.44;6120083;23;20020;-51
2022/06/28 02:52:51;;;;;;;1.80;0.45;;;;;;;4.04;100.00;101258.94;6119472;23;20057;-47
2022/06/28 02:55:17;;;;;;;5.13;0.38;;;;;;;4.03;100.00;101254.66;6120112;23;20118;-49
2022/06/28 02:57:43;;;;;;;0.30;0.00;;;;;;;4.03;100.00;101254.66;6118077;23;20002;-51
2022/06/28 03:00:11;;;;;;;0.00;0.00;;;;;;;4.00;100.00;101257.53;6120759;23;20014;-48
2022/06/28 03:02:38;;;;;;;2.42;0.40;;;;;;;3.96;100.00;101253.50;6120271;23;20384;-52
2022/06/28 03:05:06;;;;;;;1.77;1.20;;;;;;;3.94;100.00;101251.00;6120072;23;20456;-49
2022/06/28 03:07:31;;;;;;;2.33;0.35;;;;;;;3.92;100.00;101253.78;6120661;23;20426;-48
2022/06/28 03:09:57;;;;;;;2.97;0.47;;;;;;;3.91;100.00;101253.88;6119529;23;20085;-49
2022/06/28 03:12:22;;;;;;;1.10;0.17;;;;;;;3.93;100.00;101260.66;6120022;23;20016;-49
2022/06/28 03:14:48;;;;;;;0.30;0.00;;;;;;;3.92;100.00;101263.41;6120423;23;20011;-47
2022/06/28 03:17:13;;;;;;;0.50;0.00;;;;;;;3.89;100.00;101261.06;6120397;23;20441;-47
2022/06/28 03:19:39;;;;;;;0.30;0.20;;;;;;;3.85;100.00;101252.63;6120811;23;20025;-49
2022/06/28 03:22:05;;;;;;;0.45;0.32;;;;;;;3.84;100.00;101266.69;6120532;23;20002;-49
2022/06/28 03:24:30;;;;;;;0.20;0.20;;;;;;;3.85;100.00;101257.03;6118215;23;20045;-51
2022/06/28 03:26:55;;;;;;;0.85;0.40;;;;;;;3.82;100.00;101259.91;6118453;23;20014;-50
2022/06/28 03:29:21;;;;;;;0.95;0.00;;;;;;;3.80;100.00;101249.53;6118129;23;20014;-47
2022/06/28 03:31:46;;;;;;;0.17;0.10;;;;;;;3.80;100.00;101251.34;6119664;23;20041;-46
2022/06/28 03:34:12;;;;;;;1.10;0.10;;;;;;;3.80;100.00;101244.31;6116711;23;20150;-48
2022/06/28 03:36:37;;;;;;;4.03;0.85;;;;;;;3.76;100.00;101242.06;6119006;23;20420;-49
2022/06/28 03:39:03;;;;;;;3.00;0.40;;;;;;;3.71;100.00;101243.25;6119613;23;20010;-49
2022/06/28 03:41:28;;;;;;;2.20;0.10;;;;;;;3.72;100.00;101237.06;6117763;23;20320;-47
2022/06/28 03:43:54;;;;;;;1.30;0.80;;;;;;;3.74;100.00;101236.09;6119262;23;20455;-50
2022/06/28 03:46:20;;;;;;;0.65;0.03;;;;;;;3.77;100.00;101223.56;6118459;23;20443;-51
2022/06/28 03:48:47;;;;;;;1.45;0.32;;;;;;;3.81;100.00;101234.63;6117038;23;20010;-47
2022/06/28 03:51:13;;;;;;;1.65;0.20;;;;;;;3.81;100.00;101234.63;6117904;23;20013;-52
2022/06/28 03:53:38;;;;;;;1.45;0.75;;;;;;;3.81;100.00;101239.88;6091277;23;20010;-49
2022/06/28 03:56:05;;;;;;;0.77;0.13;;;;;;;3.78;100.00;101240.13;6117124;23;20084;-49
2022/06/28 03:58:31;;;;;;;1.95;0.22;;;;;;;3.79;100.00;101232.13;6114987;23;20014;-46
2022/06/28 04:00:56;;;;;;;2.10;0.20;;;;;;;3.81;100.00;101242.50;6117846;23;20009;-47
2022/06/28 04:03:22;;;;;;;1.92;0.25;;;;;;;3.82;100.00;101231.91;6119432;23;20007;-52
2022/06/28 04:05:47;;;;;;;0.50;0.10;;;;;;;3.84;100.00;101234.38;6119925;23;20104;-51
2022/06/28 04:08:13;;;;;;;2.58;0.10;;;;;;;3.85;100.00;101236.06;6119013;23;20389;-48
2022/06/28 04:10:38;;;;;;;2.80;0.40;;;;;;;3.86;100.00;101246.41;6119626;23;20344;-50
2022/06/28 04:13:04;;;;;;;0.47;0.17;;;;;;;3.89;100.00;101237.44;6119221;23;20054;-53
2022/06/28 04:15:30;;;;;;;0.05;0.05;;;;;;;3.90;100.00;101233.88;6118199;23;20006;-51
2022/06/28 04:17:55;;;;;;;0.45;0.45;;;;;;;3.92;100.00;101242.41;6119514;23;20014;-49
2022/06/28 04:20:20;;;;;;;5.93;1.30;;;;;;;3.91;100.00;101236.34;6119364;23;20105;-52
2022/06/28 04:22:46;;;;;;;2.95;1.60;;;;;;;3.93;100.00;101241.47;6119741;23;20029;-47
2022/06/28 04:25:11;;;;;;;0.85;0.10;;;;;;;3.97;100.00;101229.75;6119385;23;20013;-51
2022/06/28 04:27:37;;;;;;;0.50;0.25;;;;;;;4.02;100.00;101232.81;6093289;23;20069;-48
2022/06/28 04:30:03;;;;;;;4.75;0.20;;;;;;;4.08;100.00;101224.44;6119431;23;20113;-54
2022/06/28 04:32:29;;;;;;;1.95;0.25;;;;;;;4.13;100.00;101226.66;6118647;23;20014;-51
2022/06/28 04:34:55;;;;;;;1.95;0.70;;;;;;;4.16;100.00;101229.03;6118900;23;20010;-50
2022/06/28 04:37:21;;;;;;;2.15;0.75;;;;;;;4.17;100.00;101229.88;6121047;23;20061;-52
2022/06/28 04:39:46;;;;;;;1.35;0.45;;;;;;;4.21;100.00;101236.50;6120819;23;20068;-49
2022/06/28 04:42:12;;;;;;;0.20;0.10;;;;;;;4.26;100.00;101229.91;6118075;23;20093;-51
2022/06/28 04:44:38;;;;;;;2.20;0.10;;;;;;;4.32;100.00;101226.75;6121168;23;20673;-53
2022/06/28 04:47:04;;;;;;;1.42;0.40;;;;;;;4.38;100.00;101223.59;6120215;23;20075;-50
2022/06/28 04:49:30;;;;;;;1.05;0.22;;;;;;;4.43;100.00;101230.25;6121354;23;20026;-51
2022/06/28 04:51:55;;;;;;;1.52;0.55;;;;;;;4.44;100.00;101219.63;6121123;23;20010;-50
2022/06/28 04:54:21;;;;;;;4.25;0.85;;;;;;;4.48;100.00;101228.06;6119344;23;20006;-52
2022/06/28 04:56:47;;;;;;;1.55;0.10;;;;;;;4.56;100.00;101220.34;6119085;23;20081;-49
2022/06/28 04:59:13;;;;;;;0.43;0.30;;;;;;;4.71;100.00;101218.16;6120957;23;20009;-51
2022/06/28 05:01:38;;;;;;;0.17;0.15;;;;;;;4.81;100.00;101219.84;6120316;23;20017;-49
2022/06/28 05:04:04;;;;;;;0.43;0.15;;;;;;;4.84;100.00;101221.38;6120804;23;20006;-53
2022/06/28 05:06:30;;;;;;;3.95;0.40;;;;;;;4.87;100.00;101220.28;6120524;23;20352;-51
2022/06/28 05:08:56;;;;;;;1.65;0.40;;;;;;;4.88;100.00;101220.16;6120667;23;20014;-51
2022/06/28 05:11:22;;;;;;;0.65;0.47;;;;;;;4.91;100.00;101219.88;6121325;23;20014;-55
2022/06/28 05:13:48;;;;;;;1.83;1.10;;;;;;;4.98;100.00;101220.13;6119926;23;20021;-51
2022/06/28 05:16:13;;;;;;;7.03;0.40;;;;;;;5.05;100.00;101209.91;6119238;23;20348;-53
2022/06/28 05:18:38;;;;;;;1.15;0.40;;;;;;;5.12;100.00;101211.03;6120570;23;20009;-55
2022/06/28 05:21:04;;;;;;;0.25;0.22;;;;;;;5.22;100.00;101212.69;6121371;23;20081;-50
2022/06/28 05:23:30;;;;;;;0.77;0.40;;;;;;;5.29;100.00;101215.59;6120961;23;20006;-52
2022/06/28 05:25:56;;;;;;;2.75;0.70;;;;;;;5.34;100.00;101209.91;6120324;23;20085;-49
2022/06/28 05:28:21;;;;;;;0.40;0.40;;;;;;;5.42;100.00;101212.69;6120251;23;20076;-52
2022/06/28 05:30:47;;;;;;;0.57;0.28;;;;;;;5.51;100.00;101216.28;6120135;23;20013;-53
2022/06/28 05:33:12;;;;;;;1.25;0.90;;;;;;;5.65;100.00;101210.59;6120332;23;20589;-51
2022/06/28 05:35:38;;;;;;;1.02;0.10;;;;;;;5.77;100.00;101198.94;6119194;23;20029;-51
2022/06/28 05:38:04;;;;;;;1.88;0.38;;;;;;;5.88;100.00;101204.03;6120327;23;20010;-53
2022/06/28 05:40:29;;;;;;;0.28;0.08;;;;;;;5.98;100.00;101197.94;6120137;23;20404;-54
2022/06/28 05:42:55;;;;;;;1.17;0.47;;;;;;;6.09;100.00;101195.13;6120608;23;20018;-50
2022/06/28 05:45:20;;;;;;;5.57;0.60;;;;;;;6.32;100.00;101183.28;6119862;23;20435;-50
2022/06/28 05:47:46;;;;;;;0.65;0.15;;;;;;;6.50;100.00;101187.72;6120013;23;20033;-51
2022/06/28 05:50:12;;;;;;;2.55;0.38;;;;;;;6.60;100.00;101193.78;6120315;23;20440;-51
2022/06/28 05:52:37;;;;;;;0.70;0.10;;;;;;;6.72;100.00;101191.78;6119491;23;20009;-52
2022/06/28 05:55:03;;;;;;;5.53;0.70;;;;;;;6.83;100.00;101194.19;6120116;23;20013;-52
2022/06/28 05:57:29;;;;;;;2.85;1.35;;;;;;;7.03;100.00;101187.00;6121232;23;20015;-51
2022/06/28 05:59:54;;;;;;;4.00;1.30;;;;;;;7.35;100.00;101188.25;6118443;23;20061;-52
2022/06/28 06:02:20;;;;;;;4.32;1.52;;;;;;;7.72;100.00;101185.41;6120528;23;20006;-51
2022/06/28 06:04:45;;;;;;;8.48;0.65;;;;;;;8.12;100.00;101185.78;6117382;23;20014;-52
2022/06/28 06:07:11;;;;;;;6.05;0.60;;;;;;;8.45;100.00;101171.75;6119085;23;20129;-52
2022/06/28 06:09:36;;;;;;;11.90;1.00;;;;;;;8.71;100.00;101182.22;6118803;23;20101;-50
2022/06/28 06:12:04;;;;;;;9.77;0.95;;;;;;;8.95;100.00;101192.03;6119640;23;20014;-48
2022/06/28 06:14:29;;;;;;;9.57;0.73;;;;;;;9.08;100.00;101183.59;6119452;23;20021;-49
2022/06/28 06:16:55;;;;;;;9.02;1.17;;;;;;;9.36;100.00;101188.59;6119869;23;20408;-49
2022/06/28 06:19:20;;;;;;;5.10;0.98;;;;;;;9.49;100.00;101188.91;6117715;23;20069;-46
2022/06/28 06:21:46;;;;;;;3.83;0.38;;;;;;;9.58;100.00;101176.50;6116383;23;20016;-49
2022/06/28 06:24:12;;;;;;;6.68;0.95;;;;;;;9.61;100.00;101178.81;6119098;23;20571;-53
2022/06/28 06:26:38;;;;;;;4.60;1.33;;;;;;;9.70;100.00;101182.28;6119202;23;20173;-44
2022/06/28 06:29:03;;;;;;;5.93;0.77;;;;;;;9.77;100.00;101186.72;6118096;23;20014;-48
2022/06/28 06:31:29;;;;;;;5.82;1.60;;;;;;;9.88;100.00;101190.84;6117770;23;20024;-48
2022/06/28 06:33:55;;;;;;;5.47;0.68;;;;;;;10.04;100.00;101185.53;6118455;23;20060;-52
2022/06/28 06:36:21;;;;;;;4.88;0.40;;;;;;;10.25;100.00;101192.06;6116938;23;20073;-46
2022/06/28 06:38:47;;;;;;;4.88;1.45;;;;;;;10.38;100.00;101189.72;6119071;23;20488;-49
2022/06/28 06:41:13;;;;;;;3.95;0.55;;;;;;;10.55;100.00;101179.84;6120308;23;20060;-51
2022/06/28 06:43:38;;;;;;;21.33;1.52;;;;;;;10.70;100.00;101179.97;6117986;23;20407;-55
2022/06/28 06:46:03;;;;;;;5.63;0.65;;;;;;;10.82;100.00;101165.28;6118693;23;20006;-50
2022/06/28 06:48:29;;;;;;;5.28;0.60;;;;;;;11.01;100.00;101160.53;6116693;23;20401;-51
2022/06/28 06:50:54;;;;;;;4.55;0.35;;;;;;;11.33;100.00;101178.00;6114134;23;20546;-46
2022/06/28 06:53:20;;;;;;;9.13;3.25;;;;;;;11.46;100.00;101164.97;6116646;23;20014;-46
2022/06/28 06:55:47;;;;;;;5.28;1.40;;;;;;;11.57;100.00;101161.88;6114470;23;20013;-47
2022/06/28 06:58:13;;;;;;;5.63;1.42;;;;;;;11.91;100.00;101157.91;6113530;23;20021;-49
2022/06/28 07:00:39;;;;;;;5.40;0.80;;;;;;;12.00;100.00;101150.66;6111315;23;20304;-45
2022/06/28 07:03:04;;;;;;;3.80;1.70;;;;;;;12.09;100.00;101148.75;6109652;23;20020;-51
2022/06/28 07:05:30;;;;;;;5.45;1.38;;;;;;;12.29;100.00;101131.19;6111669;23;20137;-52
2022/06/28 07:07:56;;;;;;;7.82;3.00;;;;;;;12.45;100.00;101122.19;6114913;23;20433;-52
2022/06/28 07:10:22;;;;;;;19.80;2.03;;;;;;;12.62;100.00;101123.59;6111934;23;20338;-47
2022/06/28 07:12:48;;;;;;;6.20;1.13;;;;;;;12.90;100.00;101116.69;6114288;23;20014;-49
2022/06/28 07:15:13;;;;;;;2.95;0.80;;;;;;;13.11;100.00;101106.00;6111186;23;20014;-48
2022/06/28 07:17:39;;;;;;;5.30;0.63;;;;;;;13.35;100.00;101114.66;6111611;23;20105;-52
2022/06/28 07:20:05;;;;;;;10.63;1.42;;;;;;;13.54;100.00;101105.97;6112971;23;20010;-54
2022/06/28 07:22:30;;;;;;;3.55;0.30;;;;;;;13.67;100.00;101106.03;6112062;23;20014;-53
2022/06/28 07:24:56;;;;;;;3.15;1.30;;;;;;;13.81;100.00;101111.44;6114622;23;20016;-49
2022/06/28 07:27:22;;;;;;;4.47;1.45;;;;;;;13.89;100.00;101103.31;6114211;23;20104;-51
2022/06/28 07:29:48;;;;;;;8.80;1.80;;;;;;;13.86;100.00;101104.53;6115635;23;20340;-49
2022/06/28 07:32:14;;;;;;;6.28;0.45;;;;;;;13.74;100.00;101093.56;6119489;23;20009;-47
2022/06/28 07:34:39;;;;;;;4.05;1.15;;;;;;;13.80;100.00;101094.63;6118398;23;20014;-58
2022/06/28 07:37:05;;;;;;;5.28;0.85;;;;;;;13.89;100.00;101098.78;6119946;23;20018;-47
2022/06/28 07:39:30;;;;;;;3.65;0.85;;;;;;;14.08;100.00;101102.56;6120907;23;20032;-44
2022/06/28 07:41:56;;;;;;;3.78;0.80;;;;;;;14.29;100.00;101079.44;6120325;23;20077;-46
2022/06/28 07:44:21;;;;;;;4.05;0.88;;;;;;;14.44;100.00;101085.44;6120809;23;20025;-51
2022/06/28 07:46:46;;;;;;;4.10;0.57;;;;;;;14.65;100.00;101081.00;6121157;23;20029;-46
2022/06/28 07:49:12;;;;;;;2.22;1.25;;;;;;;14.82;100.00;101074.25;6120529;23;20013;-50
2022/06/28 07:54:22;;;;;;;7.68;0.52;;;;;;;15.00;100.00;101062.97;6119807;23;20470;-47
2022/06/28 07:56:47;;;;;;;1.90;0.57;;;;;;;15.09;100.00;101059.03;6121062;23;20009;-46
2022/06/28 07:59:12;;;;;;;5.18;0.57;;;;;;;15.23;100.00;101065.16;6121664;23;20006;-47
2022/06/28 08:01:38;;;;;;;4.45;1.85;;;;;;;15.22;100.00;101055.53;6118634;23;20127;-46
2022/06/28 08:04:03;;;;;;;2.80;0.75;;;;;;;15.43;100.00;101057.13;6121193;23;20060;-52
2022/06/28 08:06:29;;;;;;;4.95;0.73;;;;;;;15.69;100.00;101066.97;6121031;23;20034;-44
2022/06/28 08:08:54;;;;;;;3.90;0.20;;;;;;;15.88;100.00;101059.94;6119946;23;20065;-47
2022/06/28 08:11:19;;;;;;;9.32;1.08;;;;;;;15.74;100.00;101061.81;6119370;23;20069;-47
2022/06/28 08:13:48;;;;;;;5.38;0.98;;;;;;;15.73;100.00;101059.38;6121479;23;20092;-52
2022/06/28 08:16:13;;;;;;;3.15;0.38;;;;;;;15.86;100.00;101045.94;6122251;23;20049;-50
2022/06/28 08:18:39;;;;;;;2.92;0.25;;;;;;;16.35;100.00;101047.13;6121295;23;20420;-46
2022/06/28 08:21:05;;;;;;;4.70;1.05;;;;;;;16.41;100.00;101048.94;6122108;23;20010;-46
2022/06/28 08:23:30;;;;;;;4.47;0.63;;;;;;;16.21;100.00;101051.75;6122261;23;20004;-45
2022/06/28 08:25:56;;;;;;;2.58;0.63;;;;;;;15.90;100.00;101042.63;6122417;23;20029;-52
2022/06/28 08:28:21;;;;;;;7.60;0.95;;;;;;;15.70;100.00;101052.59;6120210;23;20447;-46
2022/06/28 08:30:47;;;;;;;3.38;0.98;;;;;;;15.70;100.00;101052.59;6119249;23;20006;-57
2022/06/28 08:33:13;;;;;;;3.63;0.70;;;;;;;15.38;100.00;101049.75;6121894;23;20396;-51
2022/06/28 08:35:38;;;;;;;6.05;0.68;;;;;;;15.12;100.00;101045.25;6122369;23;20010;-45
2022/06/28 08:38:05;;;;;;;2.95;0.17;;;;;;;15.10;100.00;101039.31;6119367;23;20081;-48
2022/06/28 08:40:32;;;;;;;3.78;0.20;;;;;;;15.27;100.00;101034.34;6121727;23;20076;-45
2022/06/28 08:42:58;;;;;;;2.92;0.77;;;;;;;15.58;100.00;101043.53;6121676;23;20014;-50
2022/06/28 08:45:25;;;;;;;3.22;0.20;;;;;;;15.81;100.00;101027.84;6122164;23;20010;-49
2022/06/28 08:47:52;;;;;;;3.50;0.22;;;;;;;16.03;100.00;101024.84;6120178;23;20340;-54
2022/06/28 08:50:30;;;;;;;0.47;0.43;;;;;;;16.26;100.00;101021.66;6121920;23;20034;-48
2022/06/28 08:52:57;;;;;;;2.08;0.65;;;;;;;16.57;100.00;101012.78;6119331;23;20434;-46
2022/06/28 08:55:23;;;;;;;4.45;0.85;;;;;;;16.82;100.00;101012.00;6121605;23;20030;-49
2022/06/28 08:57:50;;;;;;;3.88;0.57;;;;;;;16.82;100.00;101004.78;6118625;23;20380;-53
2022/06/28 09:00:16;;;;;;;9.38;0.40;;;;;;;17.01;100.00;101000.28;6121497;23;20018;-47
2022/06/28 09:02:41;;;;;;;1.85;0.17;;;;;;;17.03;100.00;100989.38;6119625;23;20492;-44
2022/06/28 09:05:07;;;;;;;2.58;0.25;;;;;;;16.74;100.00;101000.50;6122081;23;20092;-49
2022/06/28 09:07:33;;;;;;;3.60;0.63;;;;;;;16.27;100.00;101002.72;6120250;23;20010;-46
2022/06/28 09:09:59;;;;;;;5.30;0.50;;;;;;;16.00;100.00;101007.38;6121356;23;20336;-46
2022/06/28 09:12:25;;;;;;;4.60;0.43;;;;;;;15.90;100.00;101005.19;6120888;23;20025;-46
2022/06/28 09:14:50;;;;;;;3.55;0.35;;;;;;;16.21;100.00;100992.88;6120554;23;20013;-44
2022/06/28 09:17:21;;;;;;;7.75;0.73;;;;;;;16.76;100.00;100987.72;6120548;23;20069;-47
2022/06/28 09:19:48;;;;;;;7.47;0.70;;;;;;;17.43;100.00;100979.03;6120107;23;20076;-51
2022/06/28 09:22:32;;;;;;;5.55;0.55;;;;;;;18.09;100.00;100978.19;6121326;23;20017;-45
2022/06/28 09:24:59;;;;;;;7.50;0.20;;;;;;;18.68;100.00;100969.44;6120647;23;20424;-52
2022/06/28 09:27:31;;;;;;;3.05;0.20;;;;;;;18.95;100.00;100965.28;6121786;23;20001;-48
2022/06/28 09:29:57;;;;;;;4.43;1.05;;;;;;;18.65;100.00;100959.97;6120612;23;20406;-51
2022/06/28 09:32:31;;;;;;;1.27;0.28;;;;;;;17.97;100.00;100972.00;6122428;23;20049;-49
2022/06/28 09:35:22;;;;;;;2.88;0.35;;;;;;;17.49;100.00;100974.66;6121297;23;20327;-53
2022/06/28 09:37:50;;;;;;;3.80;0.65;;;;;;;17.54;100.00;100967.56;6120896;23;20436;-50
2022/06/28 09:40:31;;;;;;;2.28;0.20;;;;;;;17.87;100.00;100977.06;6120367;23;20018;-46
2022/06/28 09:43:07;;;;;;;8.20;0.60;;;;;;;18.14;100.00;100971.31;6119813;23;20374;-48
2022/06/28 09:45:34;;;;;;;1.17;0.15;;;;;;;18.21;100.00;100962.13;6120613;23;20010;-49
2022/06/28 09:48:00;;;;;;;1.25;0.10;;;;;;;18.32;100.00;100960.50;6121536;23;19998;-48
2022/06/28 09:50:26;;;;;;;1.15;0.20;;;;;;;18.17;100.00;100976.22;6121674;23;20020;-51
2022/06/28 09:52:52;;;;;;;1.23;0.20;;;;;;;17.84;100.00;100972.19;6119568;23;20005;-48
2022/06/28 09:55:19;;;;;;;6.20;0.60;;;;;;;17.71;100.00;100967.78;6122372;23;20010;-49
2022/06/28 09:57:47;;;;;;;2.58;0.60;;;;;;;17.47;100.00;100966.00;6121313;23;20012;-44
2022/06/28 10:00:15;;;;;;;2.75;0.75;;;;;;;17.20;100.00;100961.78;6120058;23;20021;-46
2022/06/28 10:02:42;;;;;;;2.65;0.25;;;;;;;17.02;100.00;100960.94;6121478;23;20010;-46
2022/06/28 10:05:09;;;;;;;1.73;0.10;;;;;;;16.95;100.00;100961.00;6121003;23;20147;-48
2022/06/28 10:07:35;;;;;;;2.25;0.30;;;;;;;17.29;100.00;100966.81;6117401;23;20013;-47
2022/06/28 10:10:03;;;;;;;3.00;0.10;;;;;;;17.57;100.00;100952.88;6120046;23;20017;-46
2022/06/28 10:15:17;;;;;;;2.20;0.45;;;;;;;17.78;100.00;100973.84;6120713;23;20297;-50
2022/06/28 10:17:49;;;;;;;3.05;0.25;;;;;;;17.46;100.00;100964.38;6120107;23;20081;-45
2022/06/28 10:20:27;;;;;;;1.73;0.10;;;;;;;17.54;100.00;100954.16;6121439;23;20017;-46
2022/06/28 10:23:20;;;;;;;8.95;0.17;;;;;;;17.71;100.00;100950.84;6120249;23;20010;-50
2022/06/28 10:26:00;;;;;;;2.70;0.45;;;;;;;17.98;100.00;100945.97;6121919;23;20346;-50
2022/06/28 10:28:28;;;;;;;1.08;0.13;;;;;;;18.38;100.00;100940.81;6121096;23;20093;-58
2022/06/28 10:31:24;;;;;;;3.92;0.22;;;;;;;18.58;100.00;100940.47;6121321;23;20017;-47
2022/06/28 10:33:54;;;;;;;3.17;0.40;;;;;;;19.05;100.00;100943.19;6121264;23;20444;-64
2022/06/28 10:36:23;;;;;;;4.57;0.30;;;;;;;18.98;100.00;100939.00;6121505;23;20443;-47
2022/06/28 10:39:00;;;;;;;3.60;0.47;;;;;;;18.58;100.00;100923.53;6121446;23;20029;-47
2022/06/28 10:41:42;;;;;;;2.97;0.10;;;;;;;18.60;100.00;100933.00;6121244;23;20025;-54
2022/06/28 10:44:15;;;;;;;3.65;0.30;;;;;;;18.84;100.00;100925.78;6121489;23;20010;-48
2022/06/28 10:46:41;;;;;;;4.03;0.40;;;;;;;19.32;100.00;100923.84;6120305;23;20014;-51
2022/06/28 10:49:13;;;;;;;1.48;0.10;;;;;;;19.38;100.00;100920.19;6119980;23;20009;-46
2022/06/28 10:52:07;;;;;;;1.52;0.15;;;;;;;19.42;100.00;100923.22;6119430;23;20005;-55
2022/06/28 10:54:33;;;;;;;1.65;0.30;;;;;;;19.47;100.00;100921.47;6121495;23;20026;-46
2022/06/28 10:57:00;;;;;;;5.82;0.30;;;;;;;18.93;100.00;100918.19;6121754;23;20013;-51
2022/06/28 10:59:37;;;;;;;3.22;0.15;;;;;;;18.69;100.00;100912.81;6120361;23;20316;-54
2022/06/28 11:02:03;;;;;;;1.75;1.08;;;;;;;18.89;100.00;100907.09;6121761;23;20340;-49
2022/06/28 11:04:30;;;;;;;1.65;0.03;;;;;;;19.52;100.00;100912.69;6120865;23;20006;-47
2022/06/28 11:06:58;;;;;;;0.95;0.00;;;;;;;19.68;100.00;100892.28;6118862;23;20010;-56
2022/06/28 11:10:04;;;;;;;2.10;0.85;;;;;;;19.53;100.00;100903.53;6121380;23;20070;-54
2022/06/28 11:12:34;;;;;;;4.38;0.13;;;;;;;19.32;100.00;100900.47;6121634;23;20014;-44
2022/06/28 11:15:28;;;;;;;5.28;0.10;;;;;;;19.78;100.00;100905.94;6120211;23;20006;-56
2022/06/28 11:17:54;;;;;;;1.13;0.20;;;;;;;20.08;100.00;100894.84;6120799;23;20451;-49
2022/06/28 11:20:27;;;;;;;0.95;0.28;;;;;;;20.31;100.00;100893.88;6120900;23;20006;-46
2022/06/28 11:22:53;;;;;;;3.75;0.65;;;;;;;20.61;100.00;100890.84;6120872;23;20034;-47
2022/06/28 11:25:20;;;;;;;1.55;0.43;;;;;;;20.60;100.00;100897.31;6120721;23;20032;-52
2022/06/28 11:27:53;;;;;;;2.08;0.22;;;;;;;19.82;100.00;100904.38;6120162;23;20301;-45
2022/06/28 11:30:26;;;;;;;2.38;0.73;;;;;;;19.34;100.00;100906.41;6120660;23;20574;-51
2022/06/28 11:32:54;;;;;;;3.53;0.60;;;;;;;19.27;100.00;100911.09;6120531;23;20084;-55